バンガロール の空港の天気 - METARとTAF

ベンガルール国際空港 ( VOBL / BLR ) - インド バンガロール
飛行場実況気象(Metar)
観測時間09/26 01:00 IST (09/25 19:30 UTC)
風向・風速東 2m/s
視程6000m
天気現象
少しの雲 雲底高度 460m
気温22℃
湿度88%
気圧1014hPa
METARVOBL 251930Z 10003KT 6000 FEW015 22/20 Q1014 NOSIG
過去の天気等 Google飛行場航空写真 Wunderground天気予報

過去48時間のMETAR

飛行場予報(TAF)
発表時間: 9/25 22:30 IST (9/25 17:00 UTC)
予報対象時間: 25日23時 IST ~ 27日5時 IST
風向・風速西北西 3m/s
視程6000m
全天の4割程度の雲 雲底高度 370m
26日3時 IST ~ 26日8時 IST に一時的に
視程3000m
天気現象もや
全天の4割程度の雲 雲底高度 240m
全天の4割程度の雲 雲底高度 370m
26日17時 IST ~ 26日23時 IST に一時的に
視程5000m
天気現象雨 霧雨
全天の4割程度の雲 雲底高度 240m
全天の4割程度の雲 雲底高度 370m
少しの積乱雲 雲底高度 760m
全天の8割程度の雲 雲底高度 2440m
TAF VOBL 251700Z 2518/2624 30005KT 6000 SCT012
TEMPO 2522/2603 3000 BR SCT008 SCT012
TEMPO 2612/2618 5000 RA DZ SCT008 SCT012 FEW025CB BKN080